createdAt,value
2023-02-04T00:00:16.211Z,5.83
2023-02-04T00:01:17.138Z,5.92
2023-02-04T00:02:17.647Z,5.91
2023-02-04T00:03:17.929Z,5.9
2023-02-04T00:04:18.148Z,5.81
2023-02-04T00:05:18.643Z,5.91
2023-02-04T00:06:19.704Z,5.83
2023-02-04T00:07:19.709Z,5.79
2023-02-04T00:08:20.628Z,5.79
2023-02-04T00:09:20.842Z,5.74
2023-02-04T00:10:21.076Z,5.74
2023-02-04T00:11:21.412Z,5.79
2023-02-04T00:12:21.961Z,5.81
2023-02-04T00:13:22.501Z,5.79
2023-02-04T00:14:22.415Z,5.72
2023-02-04T00:15:23.623Z,5.79
2023-02-04T00:16:24.355Z,5.76
2023-02-04T00:17:24.876Z,5.76
2023-02-04T00:18:27.974Z,5.81
2023-02-04T00:19:25.898Z,5.76
2023-02-04T00:20:27.126Z,5.81
2023-02-04T00:21:27.676Z,5.76
2023-02-04T00:22:28.365Z,5.87
2023-02-04T00:23:28.581Z,5.83
2023-02-04T00:24:29.496Z,5.81
2023-02-04T00:25:29.723Z,5.77
2023-02-04T00:26:30.362Z,5.76
2023-02-04T00:27:31.739Z,5.87
2023-02-04T00:28:32.080Z,5.79
2023-02-04T00:29:32.317Z,5.81
2023-02-04T00:30:33.741Z,5.74
2023-02-04T00:31:34.569Z,5.79
2023-02-04T00:32:34.456Z,5.81
2023-02-04T00:33:34.354Z,5.72
2023-02-04T00:34:34.547Z,5.81
2023-02-04T00:35:35.491Z,5.8
2023-02-04T00:36:36.700Z,5.74
2023-02-04T00:37:37.454Z,5.73
2023-02-04T00:38:38.065Z,5.69
2023-02-04T00:39:38.996Z,5.76
2023-02-04T00:40:39.502Z,5.79
2023-02-04T00:41:40.127Z,5.83
2023-02-04T00:42:41.192Z,5.79
2023-02-04T00:43:41.434Z,5.81
2023-02-04T00:44:42.470Z,5.73
2023-02-04T00:45:42.845Z,5.8
2023-02-04T00:46:43.348Z,5.87
2023-02-04T00:47:44.338Z,5.81
2023-02-04T00:48:44.530Z,5.8
2023-02-04T00:49:44.742Z,5.81
2023-02-04T00:50:45.423Z,5.84
2023-02-04T00:51:46.458Z,5.79
2023-02-04T00:52:46.877Z,5.84
2023-02-04T00:53:46.792Z,5.84
2023-02-04T00:54:47.407Z,5.84
2023-02-04T00:55:47.509Z,5.87
2023-02-04T00:56:48.733Z,5.76
2023-02-04T00:57:49.826Z,5.77
2023-02-04T00:58:50.345Z,5.73
2023-02-04T00:59:50.005Z,5.77
2023-02-04T01:00:51.970Z,5.81
2023-02-04T01:01:52.585Z,5.81
2023-02-04T01:02:52.996Z,5.84
2023-02-04T01:03:53.423Z,5.77
2023-02-04T01:04:53.638Z,5.81
2023-02-04T01:05:54.000Z,5.88
2023-02-04T01:06:54.491Z,5.74
2023-02-04T01:07:55.357Z,5.83
2023-02-04T01:08:55.813Z,5.83
2023-02-04T01:09:56.722Z,5.8
2023-02-04T01:10:57.361Z,5.79
2023-02-04T01:11:58.559Z,5.76
2023-02-04T01:12:58.823Z,5.84
2023-02-04T01:13:59.367Z,5.77
2023-02-04T01:14:59.850Z,5.8
2023-02-04T01:16:00.143Z,5.8
2023-02-04T01:17:00.275Z,5.76
2023-02-04T01:18:01.581Z,5.83
2023-02-04T01:19:02.505Z,5.8
2023-02-04T01:20:02.718Z,5.87
2023-02-04T01:21:02.951Z,5.83
2023-02-04T01:22:04.153Z,5.84
2023-02-04T01:23:04.359Z,5.84
2023-02-04T01:24:04.568Z,5.76
2023-02-04T01:25:05.203Z,5.73
2023-02-04T01:26:06.160Z,5.81
2023-02-04T01:27:05.781Z,5.76
2023-02-04T01:28:07.426Z,5.84
2023-02-04T01:29:07.858Z,5.8
2023-02-04T01:30:09.071Z,5.79
2023-02-04T01:31:09.780Z,5.8
2023-02-04T01:32:10.169Z,5.7
2023-02-04T01:33:11.089Z,5.74
2023-02-04T01:34:12.307Z,5.77
2023-02-04T01:35:12.937Z,5.79
2023-02-04T01:36:13.587Z,5.81
2023-02-04T01:37:14.106Z,5.74
2023-02-04T01:38:14.700Z,5.83
2023-02-04T01:39:14.908Z,5.77
2023-02-04T01:40:15.127Z,5.81
2023-02-04T01:41:15.355Z,5.73
2023-02-04T01:42:15.565Z,5.73
2023-02-04T01:43:16.847Z,5.7
2023-02-04T01:44:17.099Z,5.73
2023-02-04T01:45:18.299Z,5.69
2023-02-04T01:46:19.168Z,5.72
2023-02-04T01:47:19.398Z,5.74
2023-02-04T01:48:20.471Z,5.67
2023-02-04T01:49:20.131Z,5.69
2023-02-04T01:50:21.053Z,5.73
2023-02-04T01:51:21.149Z,5.73
2023-02-04T01:52:21.781Z,5.69
2023-02-04T01:53:22.983Z,5.73
2023-02-04T01:54:23.184Z,5.67
2023-02-04T01:55:23.516Z,5.67
2023-02-04T01:56:24.726Z,5.62
2023-02-04T01:57:25.209Z,5.73
2023-02-04T01:58:25.583Z,5.73
2023-02-04T01:59:26.197Z,5.7
2023-02-04T02:00:26.400Z,5.65
2023-02-04T02:01:27.135Z,5.67
2023-02-04T02:02:27.553Z,5.62
2023-02-04T02:03:27.948Z,5.67
2023-02-04T02:04:28.577Z,5.59
2023-02-04T02:05:29.136Z,5.58
2023-02-04T02:06:29.786Z,5.61
2023-02-04T02:07:30.706Z,5.58
2023-02-04T02:08:31.128Z,5.56
2023-02-04T02:09:31.272Z,5.61
2023-02-04T02:10:32.781Z,5.65
2023-02-04T02:11:32.132Z,5.65
2023-02-04T02:12:31.757Z,5.62
2023-02-04T02:13:33.033Z,5.61
2023-02-04T02:14:33.555Z,5.64
2023-02-04T02:15:33.745Z,5.65
2023-02-04T02:16:34.141Z,5.72
2023-02-04T02:17:34.261Z,5.62
2023-02-04T02:18:35.559Z,5.79
2023-02-04T02:19:35.751Z,5.64
2023-02-04T02:20:36.788Z,5.59
2023-02-04T02:21:36.991Z,5.76
2023-02-04T02:22:37.232Z,5.61
2023-02-04T02:23:37.426Z,5.62
2023-02-04T02:24:37.633Z,5.61
2023-02-04T02:25:38.142Z,5.59
2023-02-04T02:26:39.063Z,5.7
2023-02-04T02:27:39.055Z,5.55
2023-02-04T02:28:39.551Z,5.67
2023-02-04T02:29:39.770Z,5.55
2023-02-04T02:30:41.574Z,5.55
2023-02-04T02:31:41.478Z,5.58
2023-02-04T02:32:41.561Z,5.55
2023-02-04T02:33:42.483Z,5.52
2023-02-04T02:34:42.990Z,5.55
2023-02-04T02:35:43.192Z,5.49
2023-02-04T02:36:44.217Z,5.54
2023-02-04T02:37:45.132Z,5.52
2023-02-04T02:38:45.598Z,5.49
2023-02-04T02:39:46.534Z,5.44
2023-02-04T02:40:47.792Z,5.44
2023-02-04T02:41:47.982Z,5.4
2023-02-04T02:42:48.887Z,5.44
2023-02-04T02:43:50.162Z,5.44
2023-02-04T02:44:50.697Z,5.38
2023-02-04T02:45:50.741Z,5.37
2023-02-04T02:46:51.834Z,5.43
2023-02-04T02:47:51.844Z,5.43
2023-02-04T02:48:52.285Z,5.4
2023-02-04T02:49:53.474Z,5.43
2023-02-04T02:50:53.535Z,5.43
2023-02-04T02:51:54.465Z,5.36
2023-02-04T02:52:54.669Z,5.36
2023-02-04T02:53:55.868Z,5.46
2023-02-04T02:54:56.218Z,5.38
2023-02-04T02:55:56.844Z,5.43
2023-02-04T02:56:57.053Z,5.44
2023-02-04T02:57:57.971Z,5.44
2023-02-04T02:58:58.355Z,5.38
2023-02-04T02:59:58.898Z,5.47
2023-02-04T03:00:59.327Z,5.49
2023-02-04T03:02:00.035Z,5.49
2023-02-04T03:03:00.073Z,5.55
2023-02-04T03:04:01.016Z,5.58
2023-02-04T03:05:01.946Z,5.47
2023-02-04T03:06:03.157Z,5.58
2023-02-04T03:07:03.110Z,5.55
2023-02-04T03:08:04.346Z,5.56
2023-02-04T03:09:05.352Z,5.52
2023-02-04T03:10:05.840Z,5.51
2023-02-04T03:11:06.066Z,5.43
2023-02-04T03:12:06.713Z,5.43
2023-02-04T03:13:06.902Z,5.58
2023-02-04T03:14:08.159Z,5.56
2023-02-04T03:15:08.143Z,5.56
2023-02-04T03:16:09.578Z,5.54
2023-02-04T03:17:09.555Z,5.52
2023-02-04T03:18:10.759Z,5.54
2023-02-04T03:19:11.079Z,5.52
2023-02-04T03:20:11.732Z,5.55
2023-02-04T03:21:12.655Z,5.59
2023-02-04T03:22:13.300Z,5.58
2023-02-04T03:23:13.786Z,5.56
2023-02-04T03:24:14.018Z,5.55
2023-02-04T03:25:14.665Z,5.54
2023-02-04T03:26:15.896Z,5.51
2023-02-04T03:27:16.827Z,5.51
2023-02-04T03:28:18.042Z,5.59
2023-02-04T03:29:18.288Z,5.49
2023-02-04T03:30:18.283Z,5.56
2023-02-04T03:31:19.150Z,5.61
2023-02-04T03:32:19.118Z,5.58
2023-02-04T03:33:20.311Z,5.55
2023-02-04T03:34:20.565Z,5.54
2023-02-04T03:35:21.490Z,5.62
2023-02-04T03:36:22.433Z,5.64
2023-02-04T03:37:22.917Z,5.49
2023-02-04T03:38:25.836Z,5.54
2023-02-04T03:39:24.133Z,5.62
2023-02-04T03:40:24.776Z,5.54
2023-02-04T03:41:25.246Z,5.58
2023-02-04T03:42:25.731Z,5.59
2023-02-04T03:43:26.649Z,5.61
2023-02-04T03:44:26.886Z,5.52
2023-02-04T03:45:37.579Z,5.52
2023-02-04T03:46:28.140Z,5.43
2023-02-04T03:47:28.157Z,5.52
2023-02-04T03:48:29.661Z,5.51
2023-02-04T03:49:30.377Z,5.51
2023-02-04T03:50:31.348Z,5.47
2023-02-04T03:51:31.118Z,5.37
2023-02-04T03:52:31.318Z,5.44
2023-02-04T03:53:31.529Z,5.38
2023-02-04T03:54:32.729Z,5.37
2023-02-04T03:55:33.664Z,5.43
2023-02-04T03:56:33.581Z,5.41
2023-02-04T03:57:34.068Z,5.43
2023-02-04T03:58:33.996Z,5.4
2023-02-04T03:59:34.663Z,5.46
2023-02-04T04:00:35.564Z,5.41
2023-02-04T04:01:35.752Z,5.41
2023-02-04T04:02:35.858Z,5.43
2023-02-04T04:03:36.636Z,5.38
2023-02-04T04:04:37.559Z,5.4
2023-02-04T04:05:37.985Z,5.41
2023-02-04T04:06:38.918Z,5.44
2023-02-04T04:07:40.109Z,5.44
2023-02-04T04:08:41.027Z,5.49
2023-02-04T04:09:41.753Z,5.51
2023-02-04T04:10:42.629Z,5.55
2023-02-04T04:11:42.548Z,5.43
2023-02-04T04:12:42.474Z,5.43
2023-02-04T04:13:43.401Z,5.54
2023-02-04T04:14:44.690Z,5.55
2023-02-04T04:15:45.078Z,5.52
2023-02-04T04:16:45.622Z,5.43
2023-02-04T04:17:45.831Z,5.44
2023-02-04T04:18:47.025Z,5.44
2023-02-04T04:19:48.042Z,5.4
2023-02-04T04:20:48.541Z,5.4
2023-02-04T04:21:48.874Z,5.37
2023-02-04T04:22:49.822Z,5.38
2023-02-04T04:23:50.725Z,5.34
2023-02-04T04:24:51.211Z,5.26
2023-02-04T04:25:51.287Z,5.25
2023-02-04T04:26:51.929Z,5.26
2023-02-04T04:27:53.243Z,5.29
2023-02-04T04:28:53.567Z,5.19
2023-02-04T04:29:54.325Z,5.19
2023-02-04T04:30:54.773Z,5.22
2023-02-04T04:31:55.400Z,5.23
2023-02-04T04:32:56.000Z,5.16
2023-02-04T04:33:56.915Z,5.08
2023-02-04T04:34:57.005Z,5.12
2023-02-04T04:35:57.919Z,5.15
2023-02-04T04:36:58.850Z,5.1
2023-02-04T04:37:59.789Z,5.05
2023-02-04T04:39:00.009Z,5.07
2023-02-04T04:40:00.757Z,5.04
2023-02-04T04:41:01.412Z,4.98
2023-02-04T04:42:02.620Z,5
2023-02-04T04:43:02.583Z,5.04
2023-02-04T04:44:03.060Z,5
2023-02-04T04:45:03.331Z,5
2023-02-04T04:46:03.574Z,4.9
2023-02-04T04:47:04.322Z,4.86
2023-02-04T04:48:05.259Z,4.82
2023-02-04T04:49:06.459Z,4.89
2023-02-04T04:50:06.743Z,4.86
2023-02-04T04:51:06.941Z,4.86
2023-02-04T04:52:07.204Z,4.9
2023-02-04T04:53:08.106Z,4.86
2023-02-04T04:54:08.444Z,4.87
2023-02-04T04:55:09.383Z,4.87
2023-02-04T04:56:10.597Z,4.84
2023-02-04T04:57:10.838Z,4.87
2023-02-04T04:58:11.460Z,4.9
2023-02-04T04:59:12.374Z,4.83
2023-02-04T05:00:13.477Z,4.82
2023-02-04T05:01:13.964Z,4.79
2023-02-04T05:02:13.953Z,4.76
2023-02-04T05:03:14.594Z,4.87
2023-02-04T05:04:15.217Z,4.82
2023-02-04T05:05:15.559Z,4.79
2023-02-04T05:06:16.055Z,4.78
2023-02-04T05:07:16.967Z,4.83
2023-02-04T05:08:17.618Z,4.78
2023-02-04T05:09:18.836Z,4.79
2023-02-04T05:10:19.886Z,4.76
2023-02-04T05:11:20.223Z,4.84
2023-02-04T05:12:20.651Z,4.83
2023-02-04T05:13:21.066Z,4.76
2023-02-04T05:14:21.265Z,4.82
2023-02-04T05:15:21.812Z,4.86
2023-02-04T05:16:22.619Z,4.82
2023-02-04T05:17:22.961Z,4.84
2023-02-04T05:18:23.597Z,4.86
2023-02-04T05:19:23.532Z,4.83
2023-02-04T05:20:24.282Z,4.9
2023-02-04T05:21:24.925Z,4.83
2023-02-04T05:22:25.580Z,4.87
2023-02-04T05:23:26.072Z,4.87
2023-02-04T05:24:26.555Z,4.83
2023-02-04T05:25:26.464Z,4.87
2023-02-04T05:26:35.775Z,4.84
2023-02-04T05:27:26.970Z,4.82
2023-02-04T05:28:28.169Z,4.89
2023-02-04T05:29:28.122Z,4.87
2023-02-04T05:30:30.177Z,4.92
2023-02-04T05:31:30.364Z,4.92
2023-02-04T05:32:30.433Z,4.89
2023-02-04T05:33:30.925Z,4.84
2023-02-04T05:34:31.836Z,4.86
2023-02-04T05:35:32.179Z,4.87
2023-02-04T05:36:33.387Z,4.84
2023-02-04T05:37:34.041Z,4.82
2023-02-04T05:38:35.270Z,4.79
2023-02-04T05:39:35.767Z,4.83
2023-02-04T05:40:36.393Z,4.95
2023-02-04T05:41:36.606Z,4.79
2023-02-04T05:42:36.561Z,4.86
2023-02-04T05:43:37.499Z,4.83
2023-02-04T05:44:38.422Z,4.84
2023-02-04T05:45:40.007Z,4.76
2023-02-04T05:46:40.416Z,4.87
2023-02-04T05:47:40.798Z,4.86
2023-02-04T05:48:41.274Z,4.92
2023-02-04T05:49:41.495Z,4.86
2023-02-04T05:50:42.241Z,4.89
2023-02-04T05:51:43.151Z,4.82
2023-02-04T05:52:44.354Z,4.84
2023-02-04T05:53:44.551Z,4.83
2023-02-04T05:54:45.756Z,4.82
2023-02-04T05:55:46.672Z,4.87
2023-02-04T05:56:46.877Z,4.83
2023-02-04T05:57:47.356Z,4.89
2023-02-04T05:58:47.291Z,4.87
2023-02-04T05:59:47.916Z,4.89
2023-02-04T06:00:48.459Z,4.82
2023-02-04T06:01:48.411Z,4.86
2023-02-04T06:02:49.329Z,4.9
2023-02-04T06:03:50.202Z,4.86
2023-02-04T06:04:50.710Z,4.95
2023-02-04T06:05:50.674Z,4.9
2023-02-04T06:06:51.587Z,4.9
2023-02-04T06:07:51.504Z,4.84
2023-02-04T06:08:52.432Z,4.9
2023-02-04T06:09:52.705Z,4.9
2023-02-04T06:10:52.644Z,4.84
2023-02-04T06:11:53.591Z,4.92
2023-02-04T06:12:54.804Z,4.95
2023-02-04T06:13:55.011Z,4.98
2023-02-04T06:14:55.195Z,4.84
2023-02-04T06:15:56.207Z,4.98
2023-02-04T06:16:56.362Z,4.97
2023-02-04T06:17:57.014Z,4.95
2023-02-04T06:18:57.296Z,4.98
2023-02-04T06:19:58.223Z,4.89
2023-02-04T06:20:58.830Z,5.05
2023-02-04T06:21:59.048Z,5.04
2023-02-04T06:22:59.251Z,5
2023-02-04T06:24:00.453Z,4.98
2023-02-04T06:25:00.965Z,5.01
2023-02-04T06:26:00.635Z,4.98
2023-02-04T06:27:01.593Z,4.98
2023-02-04T06:28:02.437Z,5.08
2023-02-04T06:29:02.520Z,5.08
2023-02-04T06:30:03.022Z,5.1
2023-02-04T06:31:03.658Z,5.04
2023-02-04T06:32:03.874Z,5.02
2023-02-04T06:33:04.106Z,5.12
2023-02-04T06:34:04.585Z,5.13
2023-02-04T06:35:04.484Z,5.15
2023-02-04T06:36:04.700Z,5.2
2023-02-04T06:37:05.912Z,5.18
2023-02-04T06:38:06.821Z,5.22
2023-02-04T06:39:07.307Z,5.25
2023-02-04T06:40:07.541Z,5.31
2023-02-04T06:41:07.989Z,5.28
2023-02-04T06:42:09.192Z,5.29
2023-02-04T06:43:10.251Z,5.36
2023-02-04T06:44:10.186Z,5.31
2023-02-04T06:45:11.093Z,5.36
2023-02-04T06:46:11.603Z,5.38
2023-02-04T06:47:12.088Z,5.4
2023-02-04T06:48:12.017Z,5.38
2023-02-04T06:49:12.944Z,5.41
2023-02-04T06:50:13.585Z,5.37
2023-02-04T06:51:13.830Z,5.43
2023-02-04T06:52:14.815Z,5.37
2023-02-04T06:53:15.774Z,5.34
2023-02-04T06:54:15.970Z,5.26
2023-02-04T06:55:17.191Z,5.18
2023-02-04T06:56:17.109Z,5.13
2023-02-04T06:57:17.464Z,5.1
2023-02-04T06:58:18.399Z,5.02
2023-02-04T06:59:19.604Z,5.1
2023-02-04T07:00:20.100Z,5.05
2023-02-04T07:01:20.482Z,4.98
2023-02-04T07:02:20.926Z,4.92
2023-02-04T07:03:21.471Z,4.94
2023-02-04T07:04:22.401Z,4.86
2023-02-04T07:05:23.050Z,4.76
2023-02-04T07:06:24.262Z,4.82
2023-02-04T07:07:23.895Z,4.83
2023-02-04T07:08:24.829Z,4.83
2023-02-04T07:09:24.730Z,4.74
2023-02-04T07:10:24.945Z,4.71
2023-02-04T07:11:25.098Z,4.67
2023-02-04T07:12:25.328Z,4.6
2023-02-04T07:13:25.953Z,4.58
2023-02-04T07:14:27.158Z,4.56
2023-02-04T07:15:27.783Z,4.53
2023-02-04T07:16:28.231Z,4.56
2023-02-04T07:17:28.764Z,4.4
2023-02-04T07:18:29.393Z,4.32
2023-02-04T07:19:30.293Z,4.22
2023-02-04T07:20:31.460Z,4.14
2023-02-04T07:21:30.647Z,4.16
2023-02-04T07:22:31.290Z,4.1
2023-02-04T07:23:31.524Z,4.21
2023-02-04T07:24:32.454Z,4.21
2023-02-04T07:25:33.414Z,4.2
2023-02-04T07:26:33.608Z,4.14
2023-02-04T07:27:34.520Z,4.14
2023-02-04T07:28:34.540Z,4.13
2023-02-04T07:29:35.470Z,4.07
2023-02-04T07:30:37.326Z,4.03
2023-02-04T07:31:37.428Z,3.96
2023-02-04T07:32:36.677Z,3.95
2023-02-04T07:33:37.326Z,3.88
2023-02-04T07:34:38.532Z,3.86
2023-02-04T07:35:38.734Z,3.86
2023-02-04T07:36:39.533Z,3.68
2023-02-04T07:37:40.395Z,3.71
2023-02-04T07:38:40.304Z,3.76
2023-02-04T07:39:41.826Z,3.74
2023-02-04T07:40:42.733Z,3.71
2023-02-04T07:41:42.872Z,3.7
2023-02-04T07:42:43.775Z,3.73
2023-02-04T07:43:44.268Z,3.7
2023-02-04T07:44:44.473Z,3.64
2023-02-04T07:45:45.117Z,3.68
2023-02-04T07:46:45.564Z,3.64
2023-02-04T07:47:45.823Z,3.67
2023-02-04T07:48:46.745Z,3.61
2023-02-04T07:49:47.935Z,3.56
2023-02-04T07:50:48.569Z,3.55
2023-02-04T07:51:49.561Z,3.56
2023-02-04T07:52:50.476Z,3.55
2023-02-04T07:53:50.691Z,3.61
2023-02-04T07:54:51.614Z,3.49
2023-02-04T07:55:52.536Z,3.55
2023-02-04T07:56:52.531Z,3.56
2023-02-04T07:57:53.464Z,3.59
2023-02-04T07:58:53.836Z,3.48
2023-02-04T07:59:54.800Z,3.45
2023-02-04T08:00:54.786Z,3.52
2023-02-04T08:01:56.316Z,3.5
2023-02-04T08:02:56.491Z,3.5
2023-02-04T08:03:57.842Z,3.53
2023-02-04T08:04:58.069Z,3.5
2023-02-04T08:05:59.281Z,3.5
2023-02-04T08:06:59.214Z,3.63
2023-02-04T08:07:59.712Z,3.63
2023-02-04T08:08:59.958Z,3.61
2023-02-04T08:10:00.654Z,3.61
2023-02-04T08:11:04.009Z,3.74
2023-02-04T08:12:02.021Z,3.74
2023-02-04T08:13:02.515Z,3.74
2023-02-04T08:14:03.157Z,3.71
2023-02-04T08:15:04.375Z,3.88
2023-02-04T08:16:04.814Z,3.88
2023-02-04T08:17:05.178Z,3.92
2023-02-04T08:18:05.719Z,3.94
2023-02-04T08:19:05.658Z,3.95
2023-02-04T08:20:06.773Z,3.92
2023-02-04T08:21:06.690Z,3.94
2023-02-04T08:22:08.146Z,3.89
2023-02-04T08:23:08.079Z,3.92
2023-02-04T08:24:08.000Z,4.02
2023-02-04T08:25:08.914Z,3.94
2023-02-04T08:26:09.113Z,4
2023-02-04T08:27:09.040Z,3.89
2023-02-04T08:28:10.729Z,3.96
2023-02-04T08:29:10.592Z,4
2023-02-04T08:30:11.514Z,4.03
2023-02-04T08:31:13.167Z,4.07
2023-02-04T08:32:13.482Z,4.1
2023-02-04T08:33:13.711Z,4.14
2023-02-04T08:34:14.642Z,4.04
2023-02-04T08:35:14.853Z,4.06
2023-02-04T08:36:15.781Z,4
2023-02-04T08:37:15.584Z,4.02
2023-02-04T08:38:15.965Z,4.03
2023-02-04T08:39:16.606Z,4.1
2023-02-04T08:40:18.180Z,4.14
2023-02-04T08:41:18.897Z,4.13
2023-02-04T08:42:19.960Z,4.18
2023-02-04T08:43:19.899Z,4.2
2023-02-04T08:44:20.855Z,4.2
2023-02-04T08:45:22.061Z,4.21
2023-02-04T08:46:21.982Z,4.27
2023-02-04T08:47:22.692Z,4.21
2023-02-04T08:48:22.944Z,4.24
2023-02-04T08:49:22.882Z,4.14
2023-02-04T08:50:24.093Z,4.22
2023-02-04T08:51:24.598Z,4.14
2023-02-04T08:52:25.363Z,4.16
2023-02-04T08:53:25.581Z,4.22
2023-02-04T08:54:25.784Z,4.21
2023-02-04T08:55:26.416Z,4.2
2023-02-04T08:56:26.931Z,4.21
2023-02-04T08:57:27.712Z,4.21
2023-02-04T08:58:28.641Z,4.21
2023-02-04T08:59:29.016Z,4.13
2023-02-04T09:00:31.015Z,4.13
2023-02-04T09:01:30.628Z,4.18
2023-02-04T09:02:31.368Z,4.2
2023-02-04T09:03:31.894Z,4.25
2023-02-04T09:04:31.519Z,4.32
2023-02-04T09:05:32.462Z,4.32
2023-02-04T09:06:32.404Z,4.45
2023-02-04T09:07:33.629Z,4.46
2023-02-04T09:08:34.550Z,4.45
2023-02-04T09:09:35.039Z,4.52
2023-02-04T09:10:35.948Z,4.57
2023-02-04T09:11:35.670Z,4.57
2023-02-04T09:12:36.686Z,4.63
2023-02-04T09:13:37.318Z,4.67
2023-02-04T09:14:37.539Z,4.66
2023-02-04T09:15:38.170Z,4.56
2023-02-04T09:16:39.340Z,4.61
2023-02-04T09:17:39.678Z,4.75
2023-02-04T09:18:40.213Z,4.61
2023-02-04T09:19:40.156Z,4.61
2023-02-04T09:20:41.069Z,4.64
2023-02-04T09:21:41.983Z,4.61
2023-02-04T09:22:42.780Z,4.66
2023-02-04T09:23:43.994Z,4.66
2023-02-04T09:24:43.921Z,4.71
2023-02-04T09:25:44.157Z,4.83
2023-02-04T09:26:45.373Z,4.74
2023-02-04T09:27:45.674Z,4.84
2023-02-04T09:28:46.247Z,4.83
2023-02-04T09:29:46.749Z,4.86
2023-02-04T09:30:47.977Z,4.79
2023-02-04T09:31:48.475Z,4.9
2023-02-04T09:32:49.262Z,4.92
2023-02-04T09:33:49.844Z,5.05
2023-02-04T09:34:50.055Z,5.02
2023-02-04T09:35:50.697Z,4.97
2023-02-04T09:36:51.342Z,5.02
2023-02-04T09:37:52.329Z,4.98
2023-02-04T09:38:53.268Z,5
2023-02-04T09:39:53.759Z,5.07
2023-02-04T09:40:53.399Z,5.01
2023-02-04T09:41:54.051Z,5.07
2023-02-04T09:42:55.669Z,5.16
2023-02-04T09:43:55.915Z,5.12
2023-02-04T09:44:57.129Z,5.12
2023-02-04T09:45:57.532Z,5.18
2023-02-04T09:46:57.331Z,5.16
2023-02-04T09:47:58.773Z,5.25
2023-02-04T09:48:58.375Z,5.22
2023-02-04T09:49:59.871Z,5.22
2023-02-04T09:51:00.183Z,5.22
2023-02-04T09:52:00.244Z,5.18
2023-02-04T09:53:00.971Z,5.22
2023-02-04T09:54:01.181Z,5.23
2023-02-04T09:55:02.104Z,5.22
2023-02-04T09:56:03.014Z,5.28
2023-02-04T09:57:03.377Z,5.28
2023-02-04T09:58:03.995Z,5.2
2023-02-04T09:59:04.936Z,5.34
2023-02-04T10:00:06.000Z,5.22
2023-02-04T10:01:06.735Z,5.08
2023-02-04T10:02:07.548Z,5.16
2023-02-04T10:03:07.932Z,5.15
2023-02-04T10:04:08.775Z,5.15
2023-02-04T10:05:08.724Z,5.12
2023-02-04T10:06:09.682Z,5.13
2023-02-04T10:07:10.696Z,5.13
2023-02-04T10:08:11.377Z,5.18
2023-02-04T10:09:12.296Z,5.2
2023-02-04T10:10:12.787Z,5.18
2023-02-04T10:11:13.003Z,5.13
2023-02-04T10:12:13.919Z,5.28
2023-02-04T10:13:14.210Z,5.29
2023-02-04T10:14:14.414Z,5.25
2023-02-04T10:15:15.359Z,5.26
2023-02-04T10:16:16.756Z,5.28
2023-02-04T10:17:16.838Z,5.34
2023-02-04T10:18:18.110Z,5.4
2023-02-04T10:19:18.638Z,5.38
2023-02-04T10:20:18.858Z,5.36
2023-02-04T10:21:19.541Z,5.38
2023-02-04T10:22:19.890Z,5.38
2023-02-04T10:23:21.229Z,5.41
2023-02-04T10:24:21.442Z,5.38
2023-02-04T10:25:22.451Z,5.4
2023-02-04T10:26:23.092Z,5.46
2023-02-04T10:27:24.443Z,5.51
2023-02-04T10:28:25.001Z,5.56
2023-02-04T10:29:26.046Z,5.55
2023-02-04T10:30:26.524Z,5.44
2023-02-04T10:31:26.595Z,5.64
2023-02-04T10:32:26.785Z,5.59
2023-02-04T10:33:27.212Z,5.64
2023-02-04T10:34:27.973Z,5.73
2023-02-04T10:35:28.183Z,5.72
2023-02-04T10:36:28.392Z,5.73
2023-02-04T10:37:29.318Z,5.76
2023-02-04T10:38:30.293Z,5.76
2023-02-04T10:39:30.958Z,5.81
2023-02-04T10:40:32.103Z,5.76
2023-02-04T10:41:31.780Z,5.76
2023-02-04T10:42:31.707Z,5.8
2023-02-04T10:43:32.323Z,5.83
2023-02-04T10:44:32.397Z,5.87
2023-02-04T10:45:33.312Z,5.8
2023-02-04T10:46:33.456Z,5.77
2023-02-04T10:47:34.394Z,5.79
2023-02-04T10:48:34.982Z,5.8
2023-02-04T10:49:35.513Z,5.81
2023-02-04T10:50:36.509Z,5.87
2023-02-04T10:51:36.875Z,5.84
2023-02-04T10:52:38.006Z,5.88
2023-02-04T10:53:39.007Z,5.9
2023-02-04T10:54:39.218Z,5.9
2023-02-04T10:55:39.460Z,5.92
2023-02-04T10:56:39.385Z,5.95
2023-02-04T10:57:40.585Z,5.92
2023-02-04T10:58:41.227Z,5.94
2023-02-04T10:59:41.898Z,5.99
2023-02-04T11:00:42.821Z,5.97
2023-02-04T11:01:42.975Z,6.02
2023-02-04T11:02:43.484Z,6.1
2023-02-04T11:03:48.592Z,6.07
2023-02-04T11:04:44.793Z,6.05
2023-02-04T11:05:44.435Z,6.06
2023-02-04T11:06:44.802Z,5.9
2023-02-04T11:07:46.025Z,5.94
2023-02-04T11:08:46.997Z,5.99
2023-02-04T11:09:49.265Z,6.05
2023-02-04T11:10:48.924Z,6.05
2023-02-04T11:11:49.840Z,6.1
2023-02-04T11:12:50.749Z,5.99
2023-02-04T11:13:51.321Z,6.1
2023-02-04T11:14:51.256Z,5.99
2023-02-04T11:15:52.373Z,6.1
2023-02-04T11:16:52.409Z,6.12
2023-02-04T11:17:52.603Z,6.02
2023-02-04T11:18:53.165Z,6.17
2023-02-04T11:19:53.153Z,6.12
2023-02-04T11:20:54.486Z,6.15
2023-02-04T11:21:54.989Z,6.13
2023-02-04T11:22:54.903Z,6.19
2023-02-04T11:23:55.024Z,6.2
2023-02-04T11:24:55.957Z,6.2
2023-02-04T11:25:57.147Z,6.12
2023-02-04T11:26:57.468Z,6.2
2023-02-04T11:27:57.309Z,6.25
2023-02-04T11:28:58.682Z,6.25
2023-02-04T11:29:59.329Z,6.17
2023-02-04T11:31:00.992Z,6.13
2023-02-04T11:32:00.764Z,6.15
2023-02-04T11:33:00.754Z,6.1
2023-02-04T11:34:01.886Z,6.09
2023-02-04T11:35:02.424Z,6.19
2023-02-04T11:36:02.439Z,6.13
2023-02-04T11:37:02.937Z,6.19
2023-02-04T11:38:02.884Z,6.17
2023-02-04T11:39:04.083Z,6.1
2023-02-04T11:40:04.286Z,6.02
2023-02-04T11:41:05.034Z,5.99
2023-02-04T11:42:05.666Z,6.02
2023-02-04T11:43:05.877Z,6.05
2023-02-04T11:44:07.199Z,5.95
2023-02-04T11:45:07.120Z,6.01
2023-02-04T11:46:07.446Z,5.94
2023-02-04T11:47:08.206Z,5.9
2023-02-04T11:48:09.153Z,5.91
2023-02-04T11:49:09.435Z,5.83
2023-02-04T11:50:09.698Z,5.8
2023-02-04T11:51:10.467Z,5.76
2023-02-04T11:52:11.410Z,5.72
2023-02-04T11:53:12.613Z,5.76
2023-02-04T11:54:12.886Z,5.76
2023-02-04T11:55:13.884Z,5.65
2023-02-04T11:56:14.858Z,5.59
2023-02-04T11:57:14.791Z,5.61
2023-02-04T11:58:15.986Z,5.55
2023-02-04T11:59:16.690Z,5.61
2023-02-04T12:00:16.926Z,5.62
2023-02-04T12:01:17.146Z,5.58
2023-02-04T12:02:18.894Z,5.51
2023-02-04T12:03:18.254Z,5.56
2023-02-04T12:04:19.293Z,5.46
2023-02-04T12:05:19.891Z,5.55
2023-02-04T12:06:20.036Z,5.59
2023-02-04T12:07:20.233Z,5.46
2023-02-04T12:08:21.228Z,5.55
2023-02-04T12:09:21.430Z,5.43
2023-02-04T12:10:22.355Z,5.62
2023-02-04T12:11:22.557Z,5.55
2023-02-04T12:12:22.744Z,5.49
2023-02-04T12:13:23.372Z,5.55
2023-02-04T12:14:23.968Z,5.54
2023-02-04T12:15:24.331Z,5.52
2023-02-04T12:16:25.587Z,5.56
2023-02-04T12:17:26.110Z,5.52
2023-02-04T12:18:26.360Z,5.52
2023-02-04T12:19:28.213Z,5.59
2023-02-04T12:20:26.152Z,5.58
2023-02-04T12:21:26.516Z,5.49
2023-02-04T12:22:27.724Z,5.56
2023-02-04T12:23:28.356Z,5.4
2023-02-04T12:24:29.710Z,5.55
2023-02-04T12:25:30.422Z,5.55
2023-02-04T12:26:30.728Z,5.59
2023-02-04T12:27:31.219Z,5.64
2023-02-04T12:28:31.458Z,5.64
2023-02-04T12:29:31.811Z,5.64
2023-02-04T12:30:33.063Z,5.67
2023-02-04T12:31:33.780Z,5.64
2023-02-04T12:32:34.307Z,5.62
2023-02-04T12:33:34.524Z,5.59
2023-02-04T12:34:35.580Z,5.69
2023-02-04T12:35:35.994Z,5.73
2023-02-04T12:36:36.265Z,5.77
2023-02-04T12:37:37.492Z,5.73
2023-02-04T12:38:37.128Z,5.61
2023-02-04T12:39:38.344Z,5.61
2023-02-04T12:40:38.989Z,5.64
2023-02-04T12:41:39.897Z,5.61
2023-02-04T12:42:40.825Z,5.58
2023-02-04T12:43:42.046Z,5.61
2023-02-04T12:44:42.345Z,5.61
2023-02-04T12:45:43.302Z,5.62
2023-02-04T12:46:43.407Z,5.67
2023-02-04T12:47:44.440Z,5.56
2023-02-04T12:48:44.898Z,5.61
2023-02-04T12:49:45.884Z,5.65
2023-02-04T12:50:46.412Z,5.69
2023-02-04T12:51:47.344Z,5.64
2023-02-04T12:52:47.568Z,5.73
2023-02-04T12:53:48.639Z,5.65
2023-02-04T12:54:49.812Z,5.69
2023-02-04T12:55:50.728Z,5.77
2023-02-04T12:56:51.821Z,5.64
2023-02-04T12:57:52.364Z,5.69
2023-02-04T12:58:53.271Z,5.67
2023-02-04T12:59:53.202Z,5.8
2023-02-04T13:00:54.723Z,5.76
2023-02-04T13:01:54.912Z,5.72
2023-02-04T13:02:54.773Z,5.72
2023-02-04T13:03:55.420Z,5.7
2023-02-04T13:04:55.824Z,5.73
2023-02-04T13:05:56.081Z,5.79
2023-02-04T13:06:57.006Z,5.74
2023-02-04T13:07:57.546Z,5.79
2023-02-04T13:08:57.906Z,5.8
2023-02-04T13:09:58.574Z,5.77
2023-02-04T13:10:58.929Z,5.7
2023-02-04T13:11:59.127Z,5.77
2023-02-04T13:13:01.518Z,5.73
2023-02-04T13:14:01.007Z,5.74
2023-02-04T13:15:01.004Z,5.72
2023-02-04T13:16:02.385Z,5.61
2023-02-04T13:17:02.407Z,5.59
2023-02-04T13:18:03.335Z,5.64
2023-02-04T13:19:04.121Z,5.51
2023-02-04T13:20:05.387Z,5.51
2023-02-04T13:21:05.727Z,5.58
2023-02-04T13:22:06.673Z,5.61
2023-02-04T13:23:06.903Z,5.61
2023-02-04T13:24:08.098Z,5.62
2023-02-04T13:25:10.204Z,5.65
2023-02-04T13:26:09.695Z,5.67
2023-02-04T13:27:09.921Z,5.73
2023-02-04T13:28:10.919Z,5.76
2023-02-04T13:29:11.145Z,5.74